sensor_id;sensor_type;location;lat;lon;timestamp;P1;durP1;ratioP1;P2;durP2;ratioP2
75766;SDS011;64378;55.596;13.014;2023-01-08T00:00:28;4.17;;;1.40;;
75766;SDS011;64378;55.596;13.014;2023-01-08T00:02:54;4.67;;;1.40;;
75766;SDS011;64378;55.596;13.014;2023-01-08T00:05:19;5.33;;;1.43;;
75766;SDS011;64378;55.596;13.014;2023-01-08T00:07:44;5.30;;;1.40;;
75766;SDS011;64378;55.596;13.014;2023-01-08T00:10:10;4.33;;;1.40;;
75766;SDS011;64378;55.596;13.014;2023-01-08T00:12:35;4.87;;;1.50;;
75766;SDS011;64378;55.596;13.014;2023-01-08T00:15:00;3.73;;;1.23;;
75766;SDS011;64378;55.596;13.014;2023-01-08T00:17:26;4.37;;;1.60;;
75766;SDS011;64378;55.596;13.014;2023-01-08T00:19:51;4.40;;;1.43;;
75766;SDS011;64378;55.596;13.014;2023-01-08T00:22:16;4.57;;;1.13;;
75766;SDS011;64378;55.596;13.014;2023-01-08T00:24:42;4.28;;;1.30;;
75766;SDS011;64378;55.596;13.014;2023-01-08T00:27:07;4.38;;;1.20;;
75766;SDS011;64378;55.596;13.014;2023-01-08T00:29:33;4.07;;;1.13;;
75766;SDS011;64378;55.596;13.014;2023-01-08T00:31:58;3.80;;;1.20;;
75766;SDS011;64378;55.596;13.014;2023-01-08T00:34:23;3.57;;;1.20;;
75766;SDS011;64378;55.596;13.014;2023-01-08T00:36:49;4.10;;;1.40;;
75766;SDS011;64378;55.596;13.014;2023-01-08T00:39:14;4.73;;;1.40;;
75766;SDS011;64378;55.596;13.014;2023-01-08T00:41:39;3.37;;;1.20;;
75766;SDS011;64378;55.596;13.014;2023-01-08T00:44:08;4.40;;;1.20;;
75766;SDS011;64378;55.596;13.014;2023-01-08T00:46:33;4.30;;;1.10;;
75766;SDS011;64378;55.596;13.014;2023-01-08T00:48:58;3.70;;;1.20;;
75766;SDS011;64378;55.596;13.014;2023-01-08T00:51:24;3.73;;;1.20;;
75766;SDS011;64378;55.596;13.014;2023-01-08T00:53:50;4.18;;;1.10;;
75766;SDS011;64378;55.596;13.014;2023-01-08T00:56:15;3.83;;;1.00;;
75766;SDS011;64378;55.596;13.014;2023-01-08T00:58:40;3.83;;;1.23;;
75766;SDS011;64378;55.596;13.014;2023-01-08T01:01:12;3.70;;;1.10;;
75766;SDS011;64378;55.596;13.014;2023-01-08T01:03:39;3.50;;;1.10;;
75766;SDS011;64378;55.596;13.014;2023-01-08T01:06:05;4.38;;;1.27;;
75766;SDS011;64378;55.596;13.014;2023-01-08T01:08:32;5.20;;;1.20;;
75766;SDS011;64378;55.596;13.014;2023-01-08T01:10:58;4.95;;;1.30;;
75766;SDS011;64378;55.596;13.014;2023-01-08T01:13:23;3.77;;;1.33;;
75766;SDS011;64378;55.596;13.014;2023-01-08T01:15:57;4.93;;;1.15;;
75766;SDS011;64378;55.596;13.014;2023-01-08T01:18:24;4.13;;;1.30;;
75766;SDS011;64378;55.596;13.014;2023-01-08T01:20:49;3.35;;;1.20;;
75766;SDS011;64378;55.596;13.014;2023-01-08T01:23:15;4.80;;;1.20;;
75766;SDS011;64378;55.596;13.014;2023-01-08T01:25:40;5.37;;;1.20;;
75766;SDS011;64378;55.596;13.014;2023-01-08T01:28:06;3.15;;;1.00;;
75766;SDS011;64378;55.596;13.014;2023-01-08T01:30:31;4.90;;;1.20;;
75766;SDS011;64378;55.596;13.014;2023-01-08T01:32:57;3.80;;;1.20;;
75766;SDS011;64378;55.596;13.014;2023-01-08T01:35:22;3.92;;;1.15;;
75766;SDS011;64378;55.596;13.014;2023-01-08T01:37:47;3.45;;;1.10;;
75766;SDS011;64378;55.596;13.014;2023-01-08T01:40:13;4.05;;;1.23;;
75766;SDS011;64378;55.596;13.014;2023-01-08T01:42:38;3.92;;;1.23;;
75766;SDS011;64378;55.596;13.014;2023-01-08T01:45:25;5.63;;;1.30;;
75766;SDS011;64378;55.596;13.014;2023-01-08T01:50:36;4.93;;;1.30;;
75766;SDS011;64378;55.596;13.014;2023-01-08T01:53:08;4.72;;;1.60;;
75766;SDS011;64378;55.596;13.014;2023-01-08T01:55:40;3.72;;;1.30;;
75766;SDS011;64378;55.596;13.014;2023-01-08T01:58:10;6.68;;;1.70;;
75766;SDS011;64378;55.596;13.014;2023-01-08T02:00:37;6.20;;;1.77;;
75766;SDS011;64378;55.596;13.014;2023-01-08T02:03:03;5.00;;;1.63;;
75766;SDS011;64378;55.596;13.014;2023-01-08T02:05:36;5.40;;;1.80;;
75766;SDS011;64378;55.596;13.014;2023-01-08T02:08:10;4.27;;;1.60;;
75766;SDS011;64378;55.596;13.014;2023-01-08T02:10:46;5.35;;;1.70;;
75766;SDS011;64378;55.596;13.014;2023-01-08T02:13:32;4.63;;;1.77;;
75766;SDS011;64378;55.596;13.014;2023-01-08T02:18:37;5.60;;;2.10;;
75766;SDS011;64378;55.596;13.014;2023-01-08T02:21:11;5.60;;;1.98;;
75766;SDS011;64378;55.596;13.014;2023-01-08T02:24:07;5.90;;;1.90;;
75766;SDS011;64378;55.596;13.014;2023-01-08T02:26:42;6.70;;;1.90;;
75766;SDS011;64378;55.596;13.014;2023-01-08T02:29:14;6.47;;;2.08;;
75766;SDS011;64378;55.596;13.014;2023-01-08T02:31:44;5.90;;;2.00;;
75766;SDS011;64378;55.596;13.014;2023-01-08T02:34:10;6.25;;;2.05;;
75766;SDS011;64378;55.596;13.014;2023-01-08T02:36:43;5.30;;;1.85;;
75766;SDS011;64378;55.596;13.014;2023-01-08T02:41:51;6.45;;;2.30;;
75766;SDS011;64378;55.596;13.014;2023-01-08T02:47:05;7.93;;;2.00;;
75766;SDS011;64378;55.596;13.014;2023-01-08T02:49:35;6.90;;;2.30;;
75766;SDS011;64378;55.596;13.014;2023-01-08T02:52:04;6.68;;;2.35;;
75766;SDS011;64378;55.596;13.014;2023-01-08T02:54:33;6.15;;;2.03;;
75766;SDS011;64378;55.596;13.014;2023-01-08T02:57:03;6.53;;;1.90;;
75766;SDS011;64378;55.596;13.014;2023-01-08T02:59:32;6.10;;;2.20;;
75766;SDS011;64378;55.596;13.014;2023-01-08T03:01:59;5.80;;;2.33;;
75766;SDS011;64378;55.596;13.014;2023-01-08T03:04:26;7.47;;;2.37;;
75766;SDS011;64378;55.596;13.014;2023-01-08T03:06:58;5.75;;;2.05;;
75766;SDS011;64378;55.596;13.014;2023-01-08T03:09:23;10.73;;;2.43;;
75766;SDS011;64378;55.596;13.014;2023-01-08T03:11:53;6.73;;;2.20;;
75766;SDS011;64378;55.596;13.014;2023-01-08T03:14:27;6.57;;;2.30;;
75766;SDS011;64378;55.596;13.014;2023-01-08T03:17:16;5.97;;;2.17;;
75766;SDS011;64378;55.596;13.014;2023-01-08T03:19:53;6.55;;;2.22;;
75766;SDS011;64378;55.596;13.014;2023-01-08T03:22:23;6.82;;;2.50;;
75766;SDS011;64378;55.596;13.014;2023-01-08T03:24:50;6.22;;;2.03;;
75766;SDS011;64378;55.596;13.014;2023-01-08T03:27:22;5.80;;;2.17;;
75766;SDS011;64378;55.596;13.014;2023-01-08T03:29:51;5.68;;;2.22;;
75766;SDS011;64378;55.596;13.014;2023-01-08T03:32:18;6.90;;;2.38;;
75766;SDS011;64378;55.596;13.014;2023-01-08T03:34:47;5.72;;;2.20;;
75766;SDS011;64378;55.596;13.014;2023-01-08T03:37:18;5.78;;;2.15;;
75766;SDS011;64378;55.596;13.014;2023-01-08T03:39:50;6.00;;;1.92;;
75766;SDS011;64378;55.596;13.014;2023-01-08T03:42:19;5.60;;;1.95;;
75766;SDS011;64378;55.596;13.014;2023-01-08T03:44:46;6.38;;;2.10;;
75766;SDS011;64378;55.596;13.014;2023-01-08T03:47:11;6.45;;;1.90;;
75766;SDS011;64378;55.596;13.014;2023-01-08T03:49:38;6.22;;;2.00;;
75766;SDS011;64378;55.596;13.014;2023-01-08T03:52:06;5.97;;;1.93;;
75766;SDS011;64378;55.596;13.014;2023-01-08T03:54:32;5.50;;;2.00;;
75766;SDS011;64378;55.596;13.014;2023-01-08T03:56:59;6.05;;;1.85;;
75766;SDS011;64378;55.596;13.014;2023-01-08T03:59:25;6.20;;;2.07;;
75766;SDS011;64378;55.596;13.014;2023-01-08T04:01:50;7.60;;;2.10;;
75766;SDS011;64378;55.596;13.014;2023-01-08T04:04:16;4.97;;;1.80;;
75766;SDS011;64378;55.596;13.014;2023-01-08T04:06:42;4.93;;;1.80;;
75766;SDS011;64378;55.596;13.014;2023-01-08T04:09:07;5.83;;;1.80;;
75766;SDS011;64378;55.596;13.014;2023-01-08T04:11:33;6.13;;;2.10;;
75766;SDS011;64378;55.596;13.014;2023-01-08T04:13:58;4.57;;;1.83;;
75766;SDS011;64378;55.596;13.014;2023-01-08T04:16:24;5.23;;;1.67;;
75766;SDS011;64378;55.596;13.014;2023-01-08T04:18:49;5.80;;;1.93;;
75766;SDS011;64378;55.596;13.014;2023-01-08T04:21:14;5.60;;;1.97;;
75766;SDS011;64378;55.596;13.014;2023-01-08T04:23:40;5.20;;;1.80;;
75766;SDS011;64378;55.596;13.014;2023-01-08T04:26:06;5.72;;;1.90;;
75766;SDS011;64378;55.596;13.014;2023-01-08T04:28:33;6.32;;;2.10;;
75766;SDS011;64378;55.596;13.014;2023-01-08T04:30:59;5.18;;;1.80;;
75766;SDS011;64378;55.596;13.014;2023-01-08T04:33:24;4.40;;;1.70;;
75766;SDS011;64378;55.596;13.014;2023-01-08T04:35:50;5.20;;;1.90;;
75766;SDS011;64378;55.596;13.014;2023-01-08T04:38:15;4.57;;;1.80;;
75766;SDS011;64378;55.596;13.014;2023-01-08T04:40:41;5.97;;;2.10;;
75766;SDS011;64378;55.596;13.014;2023-01-08T04:43:07;6.43;;;1.90;;
75766;SDS011;64378;55.596;13.014;2023-01-08T04:45:32;4.70;;;1.63;;
75766;SDS011;64378;55.596;13.014;2023-01-08T04:47:58;5.07;;;1.90;;
75766;SDS011;64378;55.596;13.014;2023-01-08T04:50:24;6.32;;;2.00;;
75766;SDS011;64378;55.596;13.014;2023-01-08T04:52:51;4.85;;;1.67;;
75766;SDS011;64378;55.596;13.014;2023-01-08T04:55:17;5.27;;;1.87;;
75766;SDS011;64378;55.596;13.014;2023-01-08T04:57:42;5.43;;;2.00;;
75766;SDS011;64378;55.596;13.014;2023-01-08T05:00:08;4.85;;;1.80;;
75766;SDS011;64378;55.596;13.014;2023-01-08T05:02:35;5.57;;;1.90;;
75766;SDS011;64378;55.596;13.014;2023-01-08T05:05:00;4.45;;;1.90;;
75766;SDS011;64378;55.596;13.014;2023-01-08T05:07:26;5.10;;;1.80;;
75766;SDS011;64378;55.596;13.014;2023-01-08T05:09:51;5.13;;;1.93;;
75766;SDS011;64378;55.596;13.014;2023-01-08T05:12:17;5.43;;;1.90;;
75766;SDS011;64378;55.596;13.014;2023-01-08T05:14:42;4.90;;;1.80;;
75766;SDS011;64378;55.596;13.014;2023-01-08T05:17:07;5.00;;;1.83;;
75766;SDS011;64378;55.596;13.014;2023-01-08T05:19:33;4.43;;;1.60;;
75766;SDS011;64378;55.596;13.014;2023-01-08T05:21:58;4.63;;;1.80;;
75766;SDS011;64378;55.596;13.014;2023-01-08T05:24:23;4.40;;;1.70;;
75766;SDS011;64378;55.596;13.014;2023-01-08T05:26:49;5.17;;;1.80;;
75766;SDS011;64378;55.596;13.014;2023-01-08T05:29:14;4.80;;;1.80;;
75766;SDS011;64378;55.596;13.014;2023-01-08T05:31:40;5.07;;;1.80;;
75766;SDS011;64378;55.596;13.014;2023-01-08T05:34:05;4.60;;;1.90;;
75766;SDS011;64378;55.596;13.014;2023-01-08T05:36:30;4.25;;;1.60;;
75766;SDS011;64378;55.596;13.014;2023-01-08T05:38:56;5.57;;;1.77;;
75766;SDS011;64378;55.596;13.014;2023-01-08T05:41:21;5.00;;;1.90;;
75766;SDS011;64378;55.596;13.014;2023-01-08T05:43:47;4.33;;;1.60;;
75766;SDS011;64378;55.596;13.014;2023-01-08T05:46:12;4.07;;;1.60;;
75766;SDS011;64378;55.596;13.014;2023-01-08T05:48:37;5.10;;;2.00;;
75766;SDS011;64378;55.596;13.014;2023-01-08T05:51:03;4.90;;;1.77;;
75766;SDS011;64378;55.596;13.014;2023-01-08T05:53:29;4.57;;;1.85;;
75766;SDS011;64378;55.596;13.014;2023-01-08T05:55:58;4.43;;;1.80;;
75766;SDS011;64378;55.596;13.014;2023-01-08T05:58:29;4.60;;;1.77;;
75766;SDS011;64378;55.596;13.014;2023-01-08T06:01:16;4.80;;;1.65;;
75766;SDS011;64378;55.596;13.014;2023-01-08T06:03:41;5.90;;;1.85;;
75766;SDS011;64378;55.596;13.014;2023-01-08T06:06:06;4.40;;;1.97;;
75766;SDS011;64378;55.596;13.014;2023-01-08T06:08:34;5.67;;;1.90;;
75766;SDS011;64378;55.596;13.014;2023-01-08T06:10:59;4.18;;;1.80;;
75766;SDS011;64378;55.596;13.014;2023-01-08T06:13:27;4.97;;;1.90;;
75766;SDS011;64378;55.596;13.014;2023-01-08T06:15:53;4.80;;;1.73;;
75766;SDS011;64378;55.596;13.014;2023-01-08T06:18:18;5.18;;;1.70;;
75766;SDS011;64378;55.596;13.014;2023-01-08T06:20:44;4.50;;;1.70;;
75766;SDS011;64378;55.596;13.014;2023-01-08T06:23:09;4.57;;;1.80;;
75766;SDS011;64378;55.596;13.014;2023-01-08T06:25:35;6.20;;;1.80;;
75766;SDS011;64378;55.596;13.014;2023-01-08T06:28:01;6.53;;;2.15;;
75766;SDS011;64378;55.596;13.014;2023-01-08T06:30:27;4.65;;;1.80;;
75766;SDS011;64378;55.596;13.014;2023-01-08T06:32:56;4.27;;;1.80;;
75766;SDS011;64378;55.596;13.014;2023-01-08T06:35:23;5.25;;;1.90;;
75766;SDS011;64378;55.596;13.014;2023-01-08T06:37:48;5.20;;;1.70;;
75766;SDS011;64378;55.596;13.014;2023-01-08T06:40:13;4.73;;;1.70;;
75766;SDS011;64378;55.596;13.014;2023-01-08T06:42:39;4.73;;;1.70;;
75766;SDS011;64378;55.596;13.014;2023-01-08T06:45:05;5.07;;;1.83;;
75766;SDS011;64378;55.596;13.014;2023-01-08T06:47:32;5.03;;;1.60;;
75766;SDS011;64378;55.596;13.014;2023-01-08T06:49:57;4.78;;;1.80;;
75766;SDS011;64378;55.596;13.014;2023-01-08T06:52:23;4.33;;;1.80;;
75766;SDS011;64378;55.596;13.014;2023-01-08T06:54:49;5.63;;;1.77;;
75766;SDS011;64378;55.596;13.014;2023-01-08T06:57:14;5.70;;;1.97;;
75766;SDS011;64378;55.596;13.014;2023-01-08T06:59:40;4.60;;;1.73;;
75766;SDS011;64378;55.596;13.014;2023-01-08T07:02:05;5.70;;;2.00;;
75766;SDS011;64378;55.596;13.014;2023-01-08T07:04:30;5.83;;;1.80;;
75766;SDS011;64378;55.596;13.014;2023-01-08T07:06:56;5.10;;;1.70;;
75766;SDS011;64378;55.596;13.014;2023-01-08T07:09:21;5.63;;;1.80;;
75766;SDS011;64378;55.596;13.014;2023-01-08T07:11:46;5.20;;;1.70;;
75766;SDS011;64378;55.596;13.014;2023-01-08T07:14:12;4.70;;;1.70;;
75766;SDS011;64378;55.596;13.014;2023-01-08T07:16:38;4.50;;;1.75;;
75766;SDS011;64378;55.596;13.014;2023-01-08T07:19:03;5.30;;;1.60;;
75766;SDS011;64378;55.596;13.014;2023-01-08T07:21:29;5.07;;;1.77;;
75766;SDS011;64378;55.596;13.014;2023-01-08T07:23:55;6.72;;;1.92;;
75766;SDS011;64378;55.596;13.014;2023-01-08T07:26:20;6.23;;;1.90;;
75766;SDS011;64378;55.596;13.014;2023-01-08T07:28:45;5.13;;;1.70;;
75766;SDS011;64378;55.596;13.014;2023-01-08T07:31:11;5.20;;;1.80;;
75766;SDS011;64378;55.596;13.014;2023-01-08T07:33:36;5.50;;;1.80;;
75766;SDS011;64378;55.596;13.014;2023-01-08T07:36:02;4.83;;;1.77;;
75766;SDS011;64378;55.596;13.014;2023-01-08T07:38:29;5.20;;;1.80;;
75766;SDS011;64378;55.596;13.014;2023-01-08T07:40:56;5.28;;;1.92;;
75766;SDS011;64378;55.596;13.014;2023-01-08T07:43:22;6.13;;;2.00;;
75766;SDS011;64378;55.596;13.014;2023-01-08T07:45:49;4.60;;;1.90;;
75766;SDS011;64378;55.596;13.014;2023-01-08T07:48:14;5.23;;;1.80;;
75766;SDS011;64378;55.596;13.014;2023-01-08T07:50:43;4.75;;;1.80;;
75766;SDS011;64378;55.596;13.014;2023-01-08T07:53:09;4.97;;;1.88;;
75766;SDS011;64378;55.596;13.014;2023-01-08T07:55:36;5.00;;;1.90;;
75766;SDS011;64378;55.596;13.014;2023-01-08T07:58:08;4.25;;;1.80;;
75766;SDS011;64378;55.596;13.014;2023-01-08T08:00:35;6.47;;;2.10;;
75766;SDS011;64378;55.596;13.014;2023-01-08T08:03:01;4.97;;;1.90;;
75766;SDS011;64378;55.596;13.014;2023-01-08T08:05:28;5.80;;;1.77;;
75766;SDS011;64378;55.596;13.014;2023-01-08T08:07:54;5.47;;;2.00;;
75766;SDS011;64378;55.596;13.014;2023-01-08T08:10:19;4.47;;;1.80;;
75766;SDS011;64378;55.596;13.014;2023-01-08T08:12:44;5.03;;;2.00;;
75766;SDS011;64378;55.596;13.014;2023-01-08T08:15:10;5.30;;;1.80;;
75766;SDS011;64378;55.596;13.014;2023-01-08T08:17:35;4.50;;;1.70;;
75766;SDS011;64378;55.596;13.014;2023-01-08T08:20:00;5.43;;;1.80;;
75766;SDS011;64378;55.596;13.014;2023-01-08T08:22:26;4.70;;;1.77;;
75766;SDS011;64378;55.596;13.014;2023-01-08T08:24:51;5.32;;;1.77;;
75766;SDS011;64378;55.596;13.014;2023-01-08T08:27:16;4.68;;;1.73;;
75766;SDS011;64378;55.596;13.014;2023-01-08T08:29:42;5.05;;;1.95;;
75766;SDS011;64378;55.596;13.014;2023-01-08T08:32:07;4.67;;;1.63;;
75766;SDS011;64378;55.596;13.014;2023-01-08T08:34:32;4.73;;;1.53;;
75766;SDS011;64378;55.596;13.014;2023-01-08T08:36:58;5.57;;;1.93;;
75766;SDS011;64378;55.596;13.014;2023-01-08T08:39:23;5.60;;;2.00;;
75766;SDS011;64378;55.596;13.014;2023-01-08T08:41:48;5.63;;;1.67;;
75766;SDS011;64378;55.596;13.014;2023-01-08T08:44:14;5.37;;;2.00;;
75766;SDS011;64378;55.596;13.014;2023-01-08T08:46:39;4.77;;;1.73;;
75766;SDS011;64378;55.596;13.014;2023-01-08T08:49:05;5.47;;;1.90;;
75766;SDS011;64378;55.596;13.014;2023-01-08T08:51:30;4.83;;;2.00;;
75766;SDS011;64378;55.596;13.014;2023-01-08T08:53:55;5.93;;;2.00;;
75766;SDS011;64378;55.596;13.014;2023-01-08T08:56:21;5.50;;;1.90;;
75766;SDS011;64378;55.596;13.014;2023-01-08T08:58:46;5.20;;;1.83;;
75766;SDS011;64378;55.596;13.014;2023-01-08T09:01:11;4.80;;;1.90;;
75766;SDS011;64378;55.596;13.014;2023-01-08T09:03:37;4.53;;;1.70;;
75766;SDS011;64378;55.596;13.014;2023-01-08T09:06:02;4.80;;;1.87;;
75766;SDS011;64378;55.596;13.014;2023-01-08T09:08:28;4.90;;;1.83;;
75766;SDS011;64378;55.596;13.014;2023-01-08T09:10:53;5.10;;;1.80;;
75766;SDS011;64378;55.596;13.014;2023-01-08T09:13:19;4.80;;;1.90;;
75766;SDS011;64378;55.596;13.014;2023-01-08T09:15:44;5.10;;;2.00;;
75766;SDS011;64378;55.596;13.014;2023-01-08T09:18:10;5.77;;;2.03;;
75766;SDS011;64378;55.596;13.014;2023-01-08T09:20:35;4.70;;;2.00;;
75766;SDS011;64378;55.596;13.014;2023-01-08T09:23:01;5.40;;;1.92;;
75766;SDS011;64378;55.596;13.014;2023-01-08T09:25:27;6.37;;;1.90;;
75766;SDS011;64378;55.596;13.014;2023-01-08T09:28:03;4.85;;;1.90;;
75766;SDS011;64378;55.596;13.014;2023-01-08T09:30:30;4.18;;;1.90;;
75766;SDS011;64378;55.596;13.014;2023-01-08T09:32:57;4.70;;;2.00;;
75766;SDS011;64378;55.596;13.014;2023-01-08T09:35:23;6.03;;;2.00;;
75766;SDS011;64378;55.596;13.014;2023-01-08T09:37:52;5.28;;;1.95;;
75766;SDS011;64378;55.596;13.014;2023-01-08T09:40:19;4.88;;;1.80;;
75766;SDS011;64378;55.596;13.014;2023-01-08T09:42:48;5.37;;;2.03;;
75766;SDS011;64378;55.596;13.014;2023-01-08T09:45:29;5.28;;;1.92;;
75766;SDS011;64378;55.596;13.014;2023-01-08T09:47:57;5.15;;;1.73;;
75766;SDS011;64378;55.596;13.014;2023-01-08T09:50:25;5.05;;;1.77;;
75766;SDS011;64378;55.596;13.014;2023-01-08T09:52:52;7.57;;;1.92;;
75766;SDS011;64378;55.596;13.014;2023-01-08T09:55:18;5.25;;;1.90;;
75766;SDS011;64378;55.596;13.014;2023-01-08T09:57:45;5.72;;;1.85;;
75766;SDS011;64378;55.596;13.014;2023-01-08T10:00:20;5.25;;;1.98;;
75766;SDS011;64378;55.596;13.014;2023-01-08T10:02:51;4.63;;;1.93;;
75766;SDS011;64378;55.596;13.014;2023-01-08T10:05:18;4.97;;;1.75;;
75766;SDS011;64378;55.596;13.014;2023-01-08T10:07:44;5.65;;;1.92;;
75766;SDS011;64378;55.596;13.014;2023-01-08T10:10:21;5.68;;;1.83;;
75766;SDS011;64378;55.596;13.014;2023-01-08T10:12:49;4.25;;;1.70;;
75766;SDS011;64378;55.596;13.014;2023-01-08T10:15:16;5.32;;;2.08;;
75766;SDS011;64378;55.596;13.014;2023-01-08T10:17:45;5.40;;;1.83;;
75766;SDS011;64378;55.596;13.014;2023-01-08T10:20:19;4.65;;;1.90;;
75766;SDS011;64378;55.596;13.014;2023-01-08T10:22:47;5.18;;;1.60;;
75766;SDS011;64378;55.596;13.014;2023-01-08T10:25:15;5.35;;;1.90;;
75766;SDS011;64378;55.596;13.014;2023-01-08T10:27:59;5.38;;;1.80;;
75766;SDS011;64378;55.596;13.014;2023-01-08T10:33:01;5.72;;;2.00;;
75766;SDS011;64378;55.596;13.014;2023-01-08T10:35:36;5.35;;;2.05;;
75766;SDS011;64378;55.596;13.014;2023-01-08T10:38:03;4.97;;;1.80;;
75766;SDS011;64378;55.596;13.014;2023-01-08T10:40:33;4.93;;;2.03;;
75766;SDS011;64378;55.596;13.014;2023-01-08T10:45:55;4.85;;;1.80;;
75766;SDS011;64378;55.596;13.014;2023-01-08T10:48:24;5.82;;;2.03;;
75766;SDS011;64378;55.596;13.014;2023-01-08T10:51:06;4.90;;;2.00;;
75766;SDS011;64378;55.596;13.014;2023-01-08T10:53:38;5.72;;;1.88;;
75766;SDS011;64378;55.596;13.014;2023-01-08T10:56:05;5.77;;;2.17;;
75766;SDS011;64378;55.596;13.014;2023-01-08T10:58:39;5.13;;;1.90;;
75766;SDS011;64378;55.596;13.014;2023-01-08T11:03:52;6.78;;;1.73;;
75766;SDS011;64378;55.596;13.014;2023-01-08T11:06:21;5.55;;;1.70;;
75766;SDS011;64378;55.596;13.014;2023-01-08T11:08:53;4.82;;;1.60;;
75766;SDS011;64378;55.596;13.014;2023-01-08T11:11:20;6.30;;;1.80;;
75766;SDS011;64378;55.596;13.014;2023-01-08T11:13:55;6.07;;;1.80;;
75766;SDS011;64378;55.596;13.014;2023-01-08T11:16:29;4.93;;;1.70;;
75766;SDS011;64378;55.596;13.014;2023-01-08T11:19:03;6.03;;;1.83;;
75766;SDS011;64378;55.596;13.014;2023-01-08T11:21:38;5.85;;;1.90;;
75766;SDS011;64378;55.596;13.014;2023-01-08T11:26:39;5.43;;;1.92;;
75766;SDS011;64378;55.596;13.014;2023-01-08T11:29:13;5.32;;;1.92;;
75766;SDS011;64378;55.596;13.014;2023-01-08T11:37:13;7.23;;;2.40;;
75766;SDS011;64378;55.596;13.014;2023-01-08T11:39:41;7.70;;;2.60;;
75766;SDS011;64378;55.596;13.014;2023-01-08T11:42:14;9.17;;;2.97;;
75766;SDS011;64378;55.596;13.014;2023-01-08T11:45:22;10.82;;;3.00;;
75766;SDS011;64378;55.596;13.014;2023-01-08T11:55:35;9.85;;;3.38;;
75766;SDS011;64378;55.596;13.014;2023-01-08T12:00:45;8.77;;;3.58;;
75766;SDS011;64378;55.596;13.014;2023-01-08T12:11:21;9.43;;;3.20;;
75766;SDS011;64378;55.596;13.014;2023-01-08T12:19:02;9.77;;;3.03;;
75766;SDS011;64378;55.596;13.014;2023-01-08T12:27:26;9.45;;;2.80;;
75766;SDS011;64378;55.596;13.014;2023-01-08T12:33:06;7.20;;;2.85;;
75766;SDS011;64378;55.596;13.014;2023-01-08T12:35:38;7.60;;;2.83;;
75766;SDS011;64378;55.596;13.014;2023-01-08T12:41:13;8.27;;;2.92;;
75766;SDS011;64378;55.596;13.014;2023-01-08T12:44:02;8.17;;;2.87;;
75766;SDS011;64378;55.596;13.014;2023-01-08T12:46:30;7.85;;;2.58;;
75766;SDS011;64378;55.596;13.014;2023-01-08T12:48:58;8.30;;;2.77;;
75766;SDS011;64378;55.596;13.014;2023-01-08T12:53:55;8.20;;;2.83;;
75766;SDS011;64378;55.596;13.014;2023-01-08T13:01:36;6.90;;;2.63;;
75766;SDS011;64378;55.596;13.014;2023-01-08T13:04:10;7.63;;;2.60;;
75766;SDS011;64378;55.596;13.014;2023-01-08T13:06:36;6.50;;;2.60;;
75766;SDS011;64378;55.596;13.014;2023-01-08T13:09:15;7.57;;;2.70;;
75766;SDS011;64378;55.596;13.014;2023-01-08T13:11:49;6.38;;;2.50;;
75766;SDS011;64378;55.596;13.014;2023-01-08T13:14:17;8.93;;;2.60;;
75766;SDS011;64378;55.596;13.014;2023-01-08T13:16:43;7.18;;;2.72;;
75766;SDS011;64378;55.596;13.014;2023-01-08T13:19:26;6.87;;;2.63;;
75766;SDS011;64378;55.596;13.014;2023-01-08T13:21:54;7.32;;;2.65;;
75766;SDS011;64378;55.596;13.014;2023-01-08T13:24:35;7.57;;;2.30;;
75766;SDS011;64378;55.596;13.014;2023-01-08T13:29:46;6.82;;;2.70;;
75766;SDS011;64378;55.596;13.014;2023-01-08T13:37:38;7.85;;;2.65;;
75766;SDS011;64378;55.596;13.014;2023-01-08T13:40:03;6.20;;;2.30;;
75766;SDS011;64378;55.596;13.014;2023-01-08T13:42:31;6.47;;;2.40;;
75766;SDS011;64378;55.596;13.014;2023-01-08T13:44:58;6.60;;;2.60;;
75766;SDS011;64378;55.596;13.014;2023-01-08T13:50:16;6.13;;;2.40;;
75766;SDS011;64378;55.596;13.014;2023-01-08T13:52:49;6.05;;;2.45;;
75766;SDS011;64378;55.596;13.014;2023-01-08T13:55:34;6.70;;;2.50;;
75766;SDS011;64378;55.596;13.014;2023-01-08T14:03:25;6.70;;;2.33;;
75766;SDS011;64378;55.596;13.014;2023-01-08T14:05:51;6.77;;;2.40;;
75766;SDS011;64378;55.596;13.014;2023-01-08T14:08:23;7.10;;;2.30;;
75766;SDS011;64378;55.596;13.014;2023-01-08T14:10:50;5.70;;;2.30;;
75766;SDS011;64378;55.596;13.014;2023-01-08T14:13:16;6.22;;;1.98;;
75766;SDS011;64378;55.596;13.014;2023-01-08T14:15:45;4.90;;;2.00;;
75766;SDS011;64378;55.596;13.014;2023-01-08T14:18:11;6.47;;;2.22;;
75766;SDS011;64378;55.596;13.014;2023-01-08T14:20:39;5.45;;;2.00;;
75766;SDS011;64378;55.596;13.014;2023-01-08T14:23:11;7.10;;;2.25;;
75766;SDS011;64378;55.596;13.014;2023-01-08T14:25:42;5.63;;;2.22;;
75766;SDS011;64378;55.596;13.014;2023-01-08T14:28:13;6.03;;;2.47;;
75766;SDS011;64378;55.596;13.014;2023-01-08T14:30:52;5.57;;;2.03;;
75766;SDS011;64378;55.596;13.014;2023-01-08T14:33:23;6.05;;;2.30;;
75766;SDS011;64378;55.596;13.014;2023-01-08T14:35:53;5.90;;;2.13;;
75766;SDS011;64378;55.596;13.014;2023-01-08T14:38:19;5.63;;;2.10;;
75766;SDS011;64378;55.596;13.014;2023-01-08T14:40:47;6.05;;;2.22;;
75766;SDS011;64378;55.596;13.014;2023-01-08T14:43:21;5.15;;;2.00;;
75766;SDS011;64378;55.596;13.014;2023-01-08T14:45:48;5.90;;;2.10;;
75766;SDS011;64378;55.596;13.014;2023-01-08T14:48:17;6.07;;;2.22;;
75766;SDS011;64378;55.596;13.014;2023-01-08T14:51:04;5.13;;;2.10;;
75766;SDS011;64378;55.596;13.014;2023-01-08T14:56:10;5.68;;;2.03;;
75766;SDS011;64378;55.596;13.014;2023-01-08T14:58:37;6.55;;;2.40;;
75766;SDS011;64378;55.596;13.014;2023-01-08T15:01:24;6.90;;;2.38;;
75766;SDS011;64378;55.596;13.014;2023-01-08T15:04:03;6.05;;;2.30;;
75766;SDS011;64378;55.596;13.014;2023-01-08T15:06:38;6.27;;;1.80;;
75766;SDS011;64378;55.596;13.014;2023-01-08T15:09:14;6.23;;;1.93;;
75766;SDS011;64378;55.596;13.014;2023-01-08T15:11:56;5.78;;;2.13;;
75766;SDS011;64378;55.596;13.014;2023-01-08T15:14:23;6.07;;;2.17;;
75766;SDS011;64378;55.596;13.014;2023-01-08T15:16:51;6.53;;;2.13;;
75766;SDS011;64378;55.596;13.014;2023-01-08T15:19:25;5.45;;;2.03;;
75766;SDS011;64378;55.596;13.014;2023-01-08T15:21:56;5.20;;;2.00;;
75766;SDS011;64378;55.596;13.014;2023-01-08T15:24:24;6.55;;;2.15;;
75766;SDS011;64378;55.596;13.014;2023-01-08T15:26:51;5.50;;;2.05;;
75766;SDS011;64378;55.596;13.014;2023-01-08T15:29:18;5.68;;;2.20;;
75766;SDS011;64378;55.596;13.014;2023-01-08T15:31:47;5.40;;;2.00;;
75766;SDS011;64378;55.596;13.014;2023-01-08T15:34:14;5.63;;;2.00;;
75766;SDS011;64378;55.596;13.014;2023-01-08T15:36:42;5.60;;;2.13;;
75766;SDS011;64378;55.596;13.014;2023-01-08T15:39:09;5.37;;;2.00;;
75766;SDS011;64378;55.596;13.014;2023-01-08T15:41:35;5.45;;;2.10;;
75766;SDS011;64378;55.596;13.014;2023-01-08T15:44:20;6.72;;;2.20;;
75766;SDS011;64378;55.596;13.014;2023-01-08T15:46:46;9.07;;;2.60;;
75766;SDS011;64378;55.596;13.014;2023-01-08T15:49:11;9.15;;;3.45;;
75766;SDS011;64378;55.596;13.014;2023-01-08T15:51:39;16.43;;;5.43;;
75766;SDS011;64378;55.596;13.014;2023-01-08T15:54:08;17.88;;;6.75;;
75766;SDS011;64378;55.596;13.014;2023-01-08T15:56:36;18.65;;;7.38;;
75766;SDS011;64378;55.596;13.014;2023-01-08T15:59:02;23.05;;;7.40;;
75766;SDS011;64378;55.596;13.014;2023-01-08T16:01:27;24.23;;;7.60;;
75766;SDS011;64378;55.596;13.014;2023-01-08T16:03:53;19.60;;;7.60;;
75766;SDS011;64378;55.596;13.014;2023-01-08T16:06:18;19.73;;;7.20;;
75766;SDS011;64378;55.596;13.014;2023-01-08T16:08:43;21.83;;;7.43;;